Time;durP1;ratioP1;P1;durP2;ratioP2;P2;SDS_P1;SDS_P2;PMS_P1;PMS_P2;Temp;Humidity;BMP_temperature;BMP_pressure;BME280_temperature;BME280_humidity;BME280_pressure;Samples;Min_cycle;Max_cycle;Signal;HPM_P1;HPM_P2
2022/07/21 00:00:18;;;;;;;10.43;5.70;;;18.30;99.90;;;;;;5106906;28;20292;-74
2022/07/21 00:02:46;;;;;;;10.60;5.57;;;18.30;99.90;;;;;;5107656;28;20320;-74
2022/07/21 00:05:14;;;;;;;8.10;5.77;;;18.30;99.90;;;;;;5109892;28;20689;-75
2022/07/21 00:07:41;;;;;;;10.40;5.87;;;18.30;99.90;;;;;;5105881;28;20289;-74
2022/07/21 00:10:09;;;;;;;9.13;5.47;;;18.20;99.90;;;;;;5115279;28;20250;-74
2022/07/21 00:12:36;;;;;;;10.03;5.70;;;18.20;99.90;;;;;;5109770;27;20207;-74
2022/07/21 00:15:04;;;;;;;12.73;5.60;;;18.30;99.90;;;;;;5112161;28;20233;-75
2022/07/21 00:17:33;;;;;;;11.80;5.83;;;18.30;99.90;;;;;;5104101;28;20247;-74
2022/07/21 00:20:00;;;;;;;8.73;5.87;;;18.20;99.90;;;;;;5102764;27;20935;-75
2022/07/21 00:22:27;;;;;;;9.30;5.60;;;18.20;99.90;;;;;;5112834;27;20309;-75
2022/07/21 00:24:54;;;;;;;9.63;5.70;;;18.20;99.90;;;;;;5111381;27;20225;-75
2022/07/21 00:27:21;;;;;;;8.07;5.53;;;18.20;99.90;;;;;;5108848;28;20198;-77
2022/07/21 00:29:48;;;;;;;12.60;6.33;;;18.20;99.90;;;;;;5111853;28;20537;-75
2022/07/21 00:32:16;;;;;;;9.93;5.90;;;18.20;99.90;;;;;;5112415;28;20284;-75
2022/07/21 00:34:45;;;;;;;11.97;5.57;;;18.40;99.90;;;;;;5115678;28;20628;-75
2022/07/21 00:37:12;;;;;;;9.88;5.75;;;18.40;99.90;;;;;;5110897;27;20442;-75
2022/07/21 00:39:39;;;;;;;6.87;5.40;;;18.30;99.90;;;;;;5111364;27;20224;-74
2022/07/21 00:42:06;;;;;;;8.63;5.83;;;18.20;99.90;;;;;;5109888;28;20681;-74
2022/07/21 00:44:34;;;;;;;8.50;5.07;;;18.10;99.90;;;;;;5112565;27;20280;-74
2022/07/21 00:47:00;;;;;;;9.30;5.37;;;17.90;99.90;;;;;;5108885;27;20296;-74
2022/07/21 00:49:28;;;;;;;7.83;5.50;;;18.00;99.90;;;;;;5109045;27;20316;-75
2022/07/21 00:51:56;;;;;;;8.90;5.87;;;17.80;99.90;;;;;;5109136;27;20239;-74
2022/07/21 00:54:23;;;;;;;10.00;5.77;;;17.80;99.90;;;;;;5108441;27;20362;-74
2022/07/21 00:56:50;;;;;;;11.43;5.80;;;17.70;99.90;;;;;;5107843;27;20240;-74
2022/07/21 00:59:17;;;;;;;10.83;5.73;;;17.70;99.90;;;;;;5106438;27;20214;-74
2022/07/21 01:01:44;;;;;;;8.73;5.40;;;17.70;99.90;;;;;;5109126;27;20225;-73
2022/07/21 01:04:12;;;;;;;8.97;5.13;;;17.70;99.90;;;;;;5105726;27;20277;-74
2022/07/21 01:06:40;;;;;;;11.40;6.00;;;17.70;99.90;;;;;;5106168;27;20866;-74
2022/07/21 01:09:10;;;;;;;9.67;5.80;;;17.80;99.90;;;;;;5111885;27;20665;-74
2022/07/21 01:11:38;;;;;;;9.53;5.30;;;17.80;99.90;;;;;;5114018;27;20197;-73
2022/07/21 01:14:05;;;;;;;10.27;5.57;;;17.80;99.90;;;;;;5114669;27;20218;-74
2022/07/21 01:16:32;;;;;;;10.33;5.60;;;17.80;99.90;;;;;;5119088;27;20300;-74
2022/07/21 01:18:59;;;;;;;10.47;5.67;;;17.80;99.90;;;;;;5110947;27;20269;-73
2022/07/21 01:21:33;;;;;;;11.70;5.93;;;17.80;99.90;;;;;;5118652;27;20312;-73
2022/07/21 01:24:01;;;;;;;9.37;5.73;;;17.70;99.90;;;;;;5125104;27;20286;-74
2022/07/21 01:26:28;;;;;;;11.60;6.07;;;17.70;99.90;;;;;;5113662;27;20232;-73
2022/07/21 01:28:56;;;;;;;13.13;5.70;;;17.60;99.90;;;;;;5115164;27;20202;-74
2022/07/21 01:31:24;;;;;;;9.07;6.07;;;17.70;99.90;;;;;;5109958;27;20662;-74
2022/07/21 01:33:51;;;;;;;12.43;6.43;;;17.70;99.90;;;;;;5116451;27;20202;-74
2022/07/21 01:36:18;;;;;;;9.60;6.37;;;17.70;99.90;;;;;;5120100;27;20233;-73
2022/07/21 01:41:32;;;;;;;9.20;5.83;;;17.60;99.90;;;;;;5113889;27;20585;-73
2022/07/21 01:44:00;;;;;;;12.67;6.30;;;17.70;99.90;;;;;;5111098;28;20205;-73
2022/07/21 01:46:29;;;;;;;10.63;5.90;;;17.60;99.90;;;;;;5113638;28;20626;-74
2022/07/21 01:48:56;;;;;;;7.93;5.57;;;17.70;99.90;;;;;;5111539;28;20198;-74
2022/07/21 01:51:23;;;;;;;10.47;6.00;;;17.60;99.90;;;;;;5122520;27;20235;-74
2022/07/21 01:53:52;;;;;;;10.30;5.90;;;17.60;99.90;;;;;;5134431;27;20233;-74
2022/07/21 01:56:21;;;;;;;9.67;5.60;;;17.60;99.90;;;;;;5114857;27;20669;-74
2022/07/21 01:58:49;;;;;;;8.60;6.20;;;17.70;99.90;;;;;;5113432;28;20558;-73
2022/07/21 02:01:17;;;;;;;9.73;5.73;;;17.60;99.90;;;;;;5112012;28;20711;-74
2022/07/21 02:03:44;;;;;;;9.57;5.73;;;17.60;99.90;;;;;;5114016;27;20198;-73
2022/07/21 02:06:11;;;;;;;10.73;5.93;;;17.60;99.90;;;;;;5117680;27;20229;-73
2022/07/21 02:08:38;;;;;;;9.53;5.93;;;17.60;99.90;;;;;;5119960;27;20236;-74
2022/07/21 02:11:07;;;;;;;9.67;5.83;;;17.50;99.90;;;;;;5104109;28;20665;-74
2022/07/21 02:13:34;;;;;;;12.03;6.07;;;17.50;99.90;;;;;;5114834;27;20246;-74
2022/07/21 02:16:01;;;;;;;9.90;6.00;;;17.40;99.90;;;;;;5112755;27;20677;-74
2022/07/21 02:18:28;;;;;;;12.93;6.30;;;17.50;99.90;;;;;;5115155;27;20285;-73
2022/07/21 02:20:55;;;;;;;10.33;5.63;;;17.40;99.90;;;;;;5116446;27;20285;-73
2022/07/21 02:23:22;;;;;;;9.97;5.93;;;17.40;99.90;;;;;;5112205;28;20666;-73
2022/07/21 02:25:49;;;;;;;8.93;6.33;;;17.30;99.90;;;;;;5107295;27;20289;-74
2022/07/21 02:28:18;;;;;;;12.80;5.90;;;17.20;99.90;;;;;;5110757;28;20239;-74
2022/07/21 02:30:45;;;;;;;9.87;6.27;;;17.10;99.90;;;;;;5113057;28;20288;-74
2022/07/21 02:33:12;;;;;;;10.00;6.63;;;17.00;99.90;;;;;;5118929;27;20606;-73
2022/07/21 02:35:39;;;;;;;9.67;5.80;;;15.80;99.90;;;;;;5121360;27;20263;-74
2022/07/21 02:38:07;;;;;;;11.73;6.30;;;17.00;99.90;;;;;;5108965;27;20297;-74
2022/07/21 02:40:34;;;;;;;8.33;6.13;;;17.20;99.90;;;;;;5111737;27;20244;-73
2022/07/21 02:43:03;;;;;;;8.73;6.47;;;;;;;;;;5108755;28;20320;-73
2022/07/21 02:45:31;;;;;;;11.60;6.20;;;16.60;99.90;;;;;;5106130;28;20266;-73
2022/07/21 02:48:00;;;;;;;8.87;5.80;;;16.80;99.90;;;;;;5112422;28;20233;-73
2022/07/21 02:50:28;;;;;;;9.77;6.23;;;16.70;99.90;;;;;;5111503;28;20233;-74
2022/07/21 02:52:57;;;;;;;7.60;5.87;;;16.40;99.90;;;;;;5112959;28;20305;-74
2022/07/21 02:55:24;;;;;;;8.30;5.73;;;16.40;99.90;;;;;;5108013;28;20556;-73
2022/07/21 02:58:03;;;;;;;10.60;6.03;;;16.30;99.90;;;;;;5106061;28;20270;-73
2022/07/21 03:00:31;;;;;;;10.30;6.53;;;16.10;99.90;;;;;;5111465;28;20289;-73
2022/07/21 03:02:58;;;;;;;11.90;6.70;;;16.10;99.90;;;;;;5112086;27;20304;-72
2022/07/21 03:05:25;;;;;;;10.43;6.70;;;16.00;99.90;;;;;;5102439;28;20284;-73
2022/07/21 03:07:53;;;;;;;8.70;6.33;;;;;;;;;;5110531;28;20611;-72
2022/07/21 03:10:20;;;;;;;11.57;7.20;;;15.20;99.90;;;;;;5111731;28;20251;-72
2022/07/21 03:12:46;;;;;;;9.53;6.77;;;15.60;99.90;;;;;;5116998;27;20285;-72
2022/07/21 03:15:13;;;;;;;12.70;6.13;;;14.80;99.90;;;;;;5104618;27;20285;-72
2022/07/21 03:17:42;;;;;;;12.87;6.63;;;15.70;99.90;;;;;;5117983;27;20642;-72
2022/07/21 03:20:10;;;;;;;11.67;7.10;;;15.40;99.90;;;;;;5122431;27;20276;-72
2022/07/21 03:22:37;;;;;;;9.20;7.07;;;15.60;99.90;;;;;;5114540;27;20231;-72
2022/07/21 03:25:05;;;;;;;9.50;7.47;;;15.50;99.90;;;;;;5118796;27;20294;-72
2022/07/21 03:27:35;;;;;;;10.37;7.30;;;15.40;99.90;;;;;;5110239;27;20243;-72
2022/07/21 03:30:04;;;;;;;15.73;7.77;;;15.30;99.90;;;;;;5120136;27;20239;-72
2022/07/21 03:32:31;;;;;;;13.30;7.70;;;15.40;99.90;;;;;;5112265;27;20197;-72
2022/07/21 03:34:59;;;;;;;13.20;7.90;;;15.40;99.90;;;;;;5110631;28;20595;-72
2022/07/21 03:37:26;;;;;;;11.97;7.90;;;14.90;99.90;;;;;;5110686;28;20236;-73
2022/07/21 03:39:53;;;;;;;15.20;8.03;;;15.10;99.90;;;;;;5109661;28;20281;-72
2022/07/21 03:42:21;;;;;;;11.60;8.17;;;15.40;99.90;;;;;;5109163;28;20329;-72
2022/07/21 03:44:48;;;;;;;13.57;7.40;;;15.10;99.90;;;;;;5108900;28;20198;-73
2022/07/21 03:47:15;;;;;;;11.40;8.03;;;15.20;99.90;;;;;;5107560;28;20233;-72
2022/07/21 03:49:42;;;;;;;14.63;8.43;;;15.10;99.90;;;;;;5109947;28;20233;-72
2022/07/21 03:52:10;;;;;;;10.73;8.03;;;15.30;99.90;;;;;;5110839;28;20712;-72
2022/07/21 03:54:37;;;;;;;11.87;8.00;;;15.10;99.90;;;;;;5110563;28;20750;-72
2022/07/21 03:57:04;;;;;;;9.27;7.10;;;15.10;99.90;;;;;;5112236;28;20255;-72
2022/07/21 03:59:32;;;;;;;11.03;7.40;;;15.10;99.90;;;;;;5110916;28;20280;-72
2022/07/21 04:01:58;;;;;;;13.40;7.53;;;15.00;99.90;;;;;;5111273;28;20253;-72
2022/07/21 04:04:25;;;;;;;10.53;6.87;;;14.90;99.90;;;;;;5111465;28;20237;-73
2022/07/21 04:06:52;;;;;;;10.53;7.30;;;14.80;99.90;;;;;;5111347;28;21006;-72
2022/07/21 04:09:20;;;;;;;9.03;7.30;;;15.00;99.90;;;;;;5110904;28;20225;-72
2022/07/21 04:11:47;;;;;;;16.97;7.73;;;14.90;99.90;;;;;;5112180;28;20698;-72
2022/07/21 04:14:14;;;;;;;10.63;7.70;;;14.90;99.90;;;;;;5109268;28;20619;-73
2022/07/21 04:16:41;;;;;;;12.40;7.50;;;14.80;99.90;;;;;;5110465;28;20292;-72
2022/07/21 04:19:08;;;;;;;10.77;7.83;;;14.80;99.90;;;;;;5111203;28;20244;-72
2022/07/21 04:21:35;;;;;;;10.43;7.13;;;14.70;99.90;;;;;;5112216;28;20210;-72
2022/07/21 04:24:02;;;;;;;10.43;6.83;;;14.40;99.90;;;;;;5110720;28;20309;-73
2022/07/21 04:26:32;;;;;;;10.30;7.20;;;;;;;;;;5110314;28;20284;-72
2022/07/21 04:28:58;;;;;;;11.40;7.50;;;14.40;99.90;;;;;;5110048;28;20605;-72
2022/07/21 04:31:25;;;;;;;11.83;7.40;;;15.10;99.90;;;;;;5110416;28;20284;-72
2022/07/21 04:33:52;;;;;;;12.17;7.17;;;14.50;99.90;;;;;;5111034;28;20236;-72
2022/07/21 04:36:19;;;;;;;11.00;7.33;;;14.60;99.90;;;;;;5109830;28;20225;-72
2022/07/21 04:38:48;;;;;;;11.30;7.27;;;14.40;99.90;;;;;;5109739;28;20626;-72
2022/07/21 04:41:15;;;;;;;12.03;7.37;;;14.40;99.90;;;;;;5111204;28;20202;-73
2022/07/21 04:43:43;;;;;;;12.53;8.40;;;14.50;99.90;;;;;;5109773;28;20313;-72
2022/07/21 04:46:10;;;;;;;11.60;8.53;;;14.20;99.90;;;;;;5111579;28;20236;-72
2022/07/21 04:48:37;;;;;;;12.43;9.00;;;14.10;99.90;;;;;;5110675;28;20244;-73
2022/07/21 04:51:04;;;;;;;11.37;8.53;;;14.30;99.90;;;;;;5111295;28;20312;-72
2022/07/21 04:53:31;;;;;;;14.00;8.40;;;14.40;99.90;;;;;;5110639;28;20204;-73
2022/07/21 04:55:57;;;;;;;14.13;8.67;;;14.40;99.90;;;;;;5112244;28;20198;-72
2022/07/21 04:58:25;;;;;;;13.23;8.90;;;14.60;99.90;;;;;;5111159;28;20545;-74
2022/07/21 05:00:53;;;;;;;9.73;7.87;;;14.10;99.90;;;;;;5111656;28;20251;-73
2022/07/21 05:03:20;;;;;;;11.47;8.70;;;14.60;99.90;;;;;;5110726;28;20925;-74
2022/07/21 05:05:47;;;;;;;13.27;9.13;;;14.60;99.90;;;;;;5111928;28;20198;-74
2022/07/21 05:08:14;;;;;;;12.57;8.77;;;15.60;99.90;;;;;;5113013;28;20194;-74
2022/07/21 05:10:41;;;;;;;12.70;9.30;;;14.80;99.90;;;;;;5113656;28;20237;-74
2022/07/21 05:13:08;;;;;;;10.60;8.07;;;14.90;99.90;;;;;;5115357;28;20229;-74
2022/07/21 05:15:35;;;;;;;11.63;8.03;;;14.90;99.90;;;;;;5113170;28;20704;-74
2022/07/21 05:18:03;;;;;;;12.87;8.30;;;15.10;99.90;;;;;;5115323;28;20296;-74
2022/07/21 05:20:30;;;;;;;10.80;7.70;;;15.50;99.90;;;;;;5113271;28;20285;-72
2022/07/21 05:22:57;;;;;;;13.40;8.30;;;15.40;99.90;;;;;;5115094;28;20308;-72
2022/07/21 05:25:24;;;;;;;13.40;7.70;;;15.80;99.90;;;;;;5115626;28;20232;-73
2022/07/21 05:27:51;;;;;;;11.60;7.47;;;15.80;99.90;;;;;;5114077;28;20233;-74
2022/07/21 05:30:18;;;;;;;14.07;8.07;;;15.80;99.90;;;;;;5110914;28;20233;-73
2022/07/21 05:32:45;;;;;;;12.20;7.70;;;15.90;99.90;;;;;;5112858;28;20236;-73
2022/07/21 05:35:13;;;;;;;13.30;7.83;;;16.10;99.90;;;;;;5113856;28;20259;-73
2022/07/21 05:37:40;;;;;;;13.03;7.90;;;16.30;99.90;;;;;;5114658;28;20290;-72
2022/07/21 05:40:08;;;;;;;12.77;7.93;;;16.30;99.90;;;;;;5111987;27;20290;-73
2022/07/21 05:42:36;;;;;;;11.80;7.60;;;16.40;99.90;;;;;;5114216;28;20312;-73
2022/07/21 05:45:04;;;;;;;12.60;7.63;;;16.60;99.90;;;;;;5109603;27;20212;-73
2022/07/21 05:47:32;;;;;;;13.23;7.97;;;16.70;99.90;;;;;;5107046;28;20238;-73
2022/07/21 05:49:59;;;;;;;12.13;8.17;;;16.90;99.90;;;;;;5105519;28;20206;-73
2022/07/21 05:52:27;;;;;;;14.73;8.20;;;16.90;99.90;;;;;;5112609;28;20703;-73
2022/07/21 05:54:54;;;;;;;12.93;8.33;;;17.10;99.90;;;;;;5112981;28;20237;-73
2022/07/21 05:57:21;;;;;;;16.17;7.93;;;17.20;99.90;;;;;;5112597;28;20250;-73
2022/07/21 05:59:48;;;;;;;10.27;8.00;;;17.20;99.90;;;;;;5112802;28;20202;-73
2022/07/21 06:02:15;;;;;;;16.17;8.10;;;17.50;99.90;;;;;;5113412;28;20237;-73
2022/07/21 06:04:42;;;;;;;15.57;8.07;;;17.50;99.90;;;;;;5112949;28;20240;-73
2022/07/21 06:07:09;;;;;;;10.23;7.03;;;17.50;99.90;;;;;;5111797;28;20636;-72
2022/07/21 06:09:38;;;;;;;11.57;6.63;;;17.60;99.90;;;;;;5112474;28;20222;-73
2022/07/21 06:12:05;;;;;;;12.43;6.90;;;17.80;99.90;;;;;;5114334;28;20233;-72
2022/07/21 06:14:32;;;;;;;14.70;6.50;;;18.00;99.90;;;;;;5112842;28;20229;-73
2022/07/21 06:16:59;;;;;;;11.97;6.57;;;18.10;99.90;;;;;;5111564;28;20297;-73
2022/07/21 06:19:26;;;;;;;10.00;6.30;;;18.30;99.90;;;;;;5113023;28;20239;-73
2022/07/21 06:21:53;;;;;;;8.60;6.40;;;18.40;99.90;;;;;;5113349;28;20681;-73
2022/07/21 06:24:22;;;;;;;8.40;5.83;;;18.60;99.90;;;;;;5113235;28;20308;-73
2022/07/21 06:26:50;;;;;;;10.03;6.20;;;18.90;99.90;;;;;;5112118;28;20621;-73
2022/07/21 06:29:17;;;;;;;10.27;6.13;;;19.20;99.90;;;;;;5113196;28;20244;-73
2022/07/21 06:31:44;;;;;;;11.10;5.97;;;19.40;99.90;;;;;;5108709;27;20741;-73
2022/07/21 06:34:11;;;;;;;8.98;5.60;;;19.60;99.90;;;;;;5105713;28;20237;-72
2022/07/21 06:36:37;;;;;;;7.65;5.30;;;20.10;99.90;;;;;;5112861;28;20285;-73
2022/07/21 06:39:05;;;;;;;7.90;5.57;;;20.40;99.90;;;;;;5112951;28;20233;-73
2022/07/21 06:41:32;;;;;;;9.13;5.03;;;20.90;99.90;;;;;;5107201;28;20225;-74
2022/07/21 06:44:01;;;;;;;5.65;4.35;;;22.90;99.90;;;;;;5112796;28;20264;-74
2022/07/21 06:46:28;;;;;;;7.47;4.68;;;24.40;99.90;;;;;;5112413;27;20281;-75
2022/07/21 06:48:55;;;;;;;7.13;4.93;;;25.90;99.90;;;;;;5113020;28;20294;-74
2022/07/21 06:51:22;;;;;;;6.28;4.10;;;26.80;99.90;;;;;;5113450;28;20328;-75
2022/07/21 06:53:49;;;;;;;7.55;4.57;;;26.90;99.90;;;;;;5112836;28;20197;-74
2022/07/21 06:56:18;;;;;;;8.35;4.40;;;26.90;99.90;;;;;;5113246;28;20220;-74
2022/07/21 06:58:45;;;;;;;7.20;4.13;;;27.90;99.90;;;;;;5112539;28;20318;-74
2022/07/21 07:01:16;;;;;;;11.77;4.60;;;28.80;99.90;;;;;;5111103;28;20237;-75
2022/07/21 07:03:44;;;;;;;7.30;4.13;;;28.00;99.90;;;;;;5110547;28;20232;-74
2022/07/21 07:06:13;;;;;;;6.93;3.75;;;28.40;99.90;;;;;;5112563;27;20205;-74
2022/07/21 07:08:40;;;;;;;6.57;4.10;;;28.60;99.90;;;;;;5111896;28;20727;-75
2022/07/21 07:11:07;;;;;;;4.85;3.97;;;27.50;99.90;;;;;;5113107;28;20198;-74
2022/07/21 07:13:34;;;;;;;5.95;3.95;;;27.10;99.90;;;;;;5112400;28;20229;-75
2022/07/21 07:16:01;;;;;;;5.38;3.83;;;27.40;99.90;;;;;;5112848;28;20744;-74
2022/07/21 07:18:30;;;;;;;7.32;3.80;;;27.10;99.90;;;;;;5113084;28;20233;-74
2022/07/21 07:20:58;;;;;;;6.60;4.10;;;27.00;99.90;;;;;;5110084;28;20233;-74
2022/07/21 07:23:25;;;;;;;6.75;3.70;;;25.60;99.90;;;;;;5109646;28;20247;-74
2022/07/21 07:25:52;;;;;;;8.70;4.40;;;24.30;99.90;;;;;;5113278;28;20198;-74
2022/07/21 07:28:18;;;;;;;9.68;4.38;;;23.40;99.90;;;;;;5109278;28;20233;-75
2022/07/21 07:30:45;;;;;;;6.60;4.32;;;23.30;99.90;;;;;;5112608;28;20748;-74
2022/07/21 07:33:12;;;;;;;7.88;4.53;;;22.30;99.90;;;;;;5108987;28;20225;-75
2022/07/21 07:35:41;;;;;;;7.55;4.22;;;23.10;99.90;;;;;;5112590;28;20564;-74
2022/07/21 07:38:08;;;;;;;7.85;4.75;;;22.70;99.90;;;;;;5112309;28;20288;-75
2022/07/21 07:40:36;;;;;;;7.38;4.32;;;23.20;99.90;;;;;;5110465;28;20241;-75
2022/07/21 07:43:03;;;;;;;6.97;4.45;;;24.10;99.90;;;;;;5111601;28;20205;-75
2022/07/21 07:45:30;;;;;;;6.32;4.60;;;23.50;99.90;;;;;;5110575;28;20236;-74
2022/07/21 07:47:57;;;;;;;6.72;4.25;;;23.10;99.90;;;;;;5108535;27;20574;-74
2022/07/21 07:50:24;;;;;;;8.32;4.30;;;22.90;99.90;;;;;;5112121;28;20304;-75
2022/07/21 07:52:52;;;;;;;6.53;4.50;;;22.70;99.90;;;;;;5111878;28;20260;-74
2022/07/21 07:55:19;;;;;;;8.27;4.68;;;22.30;99.90;;;;;;5112201;28;20237;-74
2022/07/21 07:57:46;;;;;;;9.18;4.80;;;21.80;99.90;;;;;;5109344;28;20296;-74
2022/07/21 08:00:15;;;;;;;9.45;4.43;;;21.60;99.90;;;;;;5111314;28;20232;-74
2022/07/21 08:02:42;;;;;;;6.07;4.97;;;22.80;99.90;;;;;;5110932;28;20205;-74
2022/07/21 08:05:10;;;;;;;8.45;4.70;;;23.20;99.90;;;;;;5109455;28;20302;-74
2022/07/21 08:07:38;;;;;;;9.30;5.00;;;24.00;99.90;;;;;;5111097;28;20270;-75
2022/07/21 08:10:08;;;;;;;5.65;4.28;;;25.50;99.90;;;;;;5112458;28;20194;-75
2022/07/21 08:12:35;;;;;;;7.93;4.40;;;26.00;99.90;;;;;;5112575;28;20237;-74
2022/07/21 08:15:03;;;;;;;6.03;4.40;;;26.70;99.90;;;;;;5111184;28;20225;-75
2022/07/21 08:17:30;;;;;;;6.07;4.43;;;26.80;99.90;;;;;;5110510;28;20236;-75
2022/07/21 08:19:57;;;;;;;7.72;4.28;;;26.20;99.90;;;;;;5107991;28;20234;-75
2022/07/21 08:22:24;;;;;;;5.88;4.55;;;25.50;99.90;;;;;;5111414;28;20201;-75
2022/07/21 08:24:51;;;;;;;7.75;4.50;;;25.50;99.90;;;;;;5114596;28;20424;-74
2022/07/21 08:27:20;;;;;;;6.07;4.15;;;27.00;99.90;;;;;;5103915;28;20630;-74
2022/07/21 08:29:47;;;;;;;5.57;4.18;;;28.10;99.90;;;;;;5116157;28;20229;-75
2022/07/21 08:32:14;;;;;;;6.97;4.13;;;28.20;99.90;;;;;;5108086;28;20201;-74
2022/07/21 08:34:41;;;;;;;7.25;4.47;;;27.50;99.90;;;;;;5105454;28;20201;-75
2022/07/21 08:37:08;;;;;;;5.47;3.72;;;27.90;99.90;;;;;;5114806;28;20208;-73
2022/07/21 08:39:35;;;;;;;6.50;4.60;;;26.40;99.90;;;;;;5112679;28;20789;-74
2022/07/21 08:42:02;;;;;;;6.60;4.30;;;25.20;99.90;;;;;;5114995;27;20202;-73
2022/07/21 08:44:32;;;;;;;4.80;4.30;;;26.80;99.90;;;;;;5120028;27;20355;-74
2022/07/21 08:46:59;;;;;;;6.70;4.70;;;27.90;99.90;;;;;;5127086;27;20219;-74
2022/07/21 08:49:25;;;;;;;5.60;4.35;;;26.60;99.90;;;;;;5114395;28;20205;-74
2022/07/21 08:51:53;;;;;;;4.82;3.92;;;27.70;99.90;;;;;;5115288;28;20269;-74
2022/07/21 08:54:21;;;;;;;4.80;4.05;;;28.00;99.90;;;;;;5117426;27;20284;-74
2022/07/21 08:56:49;;;;;;;6.13;4.03;;;29.00;99.90;;;;;;5115805;28;20194;-75
2022/07/21 08:59:16;;;;;;;4.95;3.85;;;30.00;99.90;;;;;;5114834;28;20225;-75
2022/07/21 09:01:44;;;;;;;4.88;3.80;;;29.70;99.90;;;;;;5115805;28;20251;-75
2022/07/21 09:04:22;;;;;;;4.20;3.60;;;29.50;99.90;;;;;;5113347;28;20597;-75
2022/07/21 09:06:56;;;;;;;5.85;3.95;;;28.50;99.90;;;;;;5114747;28;20781;-75
2022/07/21 09:09:25;;;;;;;5.00;3.75;;;28.30;99.90;;;;;;5115830;27;20197;-75
2022/07/21 09:11:52;;;;;;;4.60;3.60;;;28.40;99.90;;;;;;5124005;27;20706;-74
2022/07/21 09:14:21;;;;;;;4.20;3.70;;;28.50;99.90;;;;;;5115831;27;20247;-74
2022/07/21 09:16:51;;;;;;;5.68;3.70;;;29.00;99.90;;;;;;5118175;27;20198;-74
2022/07/21 09:19:21;;;;;;;5.43;3.50;;;27.40;99.90;;;;;;5117586;27;20293;-74
2022/07/21 09:21:48;;;;;;;4.15;3.72;;;27.90;99.90;;;;;;5119698;27;20280;-74
2022/07/21 09:24:19;;;;;;;6.50;3.25;;;28.00;99.90;;;;;;5114050;28;20304;-75
2022/07/21 09:27:06;;;;;;;8.23;3.58;;;28.40;99.90;;;;;;5114715;28;20688;-75
2022/07/21 09:29:45;;;;;;;7.38;3.92;;;28.40;99.90;;;;;;5113838;28;20622;-74
2022/07/21 09:32:20;;;;;;;7.50;3.75;;;28.90;99.90;;;;;;5110173;28;20229;-75
2022/07/21 09:34:50;;;;;;;6.10;3.67;;;29.10;99.90;;;;;;5113731;27;20203;-75
2022/07/21 09:37:17;;;;;;;8.85;3.53;;;28.60;99.90;;;;;;5114502;28;20194;-73
2022/07/21 09:39:47;;;;;;;3.80;3.40;;;28.00;99.90;;;;;;5114868;28;20233;-74
2022/07/21 09:42:16;;;;;;;6.38;4.18;;;27.60;99.90;;;;;;5116780;27;20741;-73
2022/07/21 09:44:45;;;;;;;5.88;4.10;;;27.00;99.90;;;;;;5113794;27;20670;-75
2022/07/21 09:47:15;;;;;;;7.00;3.97;;;26.90;99.90;;;;;;5126848;27;20236;-74
2022/07/21 09:49:44;;;;;;;4.93;3.70;;;26.50;99.90;;;;;;5118581;27;20283;-75
2022/07/21 09:52:26;;;;;;;10.77;4.20;;;26.40;99.90;;;;;;5111444;28;20339;-74
2022/07/21 09:54:55;;;;;;;4.25;3.45;;;25.40;99.90;;;;;;5114520;27;20209;-75
2022/07/21 09:57:22;;;;;;;4.15;3.50;;;27.00;99.90;;;;;;5118368;27;20200;-75
2022/07/21 09:59:51;;;;;;;5.60;3.88;;;27.30;99.90;;;;;;5114659;27;20569;-76
2022/07/21 10:02:20;;;;;;;4.70;3.90;;;27.00;99.90;;;;;;5118035;27;20198;-78
2022/07/21 10:04:56;;;;;;;4.03;3.58;;;26.80;99.90;;;;;;5117642;27;20256;-75
2022/07/21 10:07:24;;;;;;;3.90;3.45;;;26.80;99.90;;;;;;5107819;28;20279;-75
2022/07/21 10:09:51;;;;;;;4.72;3.67;;;26.50;99.90;;;;;;5110069;27;20340;-75
2022/07/21 10:12:18;;;;;;;4.93;3.60;;;26.40;99.90;;;;;;5112387;27;20205;-75
2022/07/21 10:14:46;;;;;;;6.38;3.38;;;26.70;99.90;;;;;;5110140;27;20560;-75
2022/07/21 10:17:14;;;;;;;4.95;3.60;;;28.00;99.90;;;;;;5107687;27;20225;-75
2022/07/21 10:19:54;;;;;;;6.50;3.45;;;30.40;99.90;;;;;;5110965;27;20289;-75
2022/07/21 10:22:31;;;;;;;3.95;3.35;;;33.20;99.90;;;;;;5116915;27;20266;-75
2022/07/21 10:24:59;;;;;;;7.00;3.90;;;32.10;83.20;;;;;;5115535;27;20312;-75
2022/07/21 10:27:26;;;;;;;5.32;3.45;;;29.80;99.70;;;;;;5106227;27;20218;-75
2022/07/21 10:29:56;;;;;;;5.57;3.53;;;28.80;99.90;;;;;;5109424;27;20230;-75
2022/07/21 10:32:27;;;;;;;6.18;4.10;;;27.30;99.90;;;;;;5113741;27;20208;-75
2022/07/21 10:34:56;;;;;;;5.18;3.42;;;27.00;99.90;;;;;;5106470;28;20193;-74
2022/07/21 10:37:48;;;;;;;6.40;3.78;;;27.50;99.90;;;;;;5107362;27;21533;-75
2022/07/21 10:40:40;;;;;;;5.93;3.70;;;26.40;99.90;;;;;;5111664;27;20756;-74
2022/07/21 10:43:40;;;;;;;4.47;3.80;;;26.50;99.90;;;;;;5101375;27;20718;-75
2022/07/21 10:46:34;;;;;;;4.25;3.67;;;27.00;99.90;;;;;;5104192;27;20225;-75
2022/07/21 10:49:01;;;;;;;5.20;3.50;;;27.30;99.90;;;;;;5115248;27;20240;-73
2022/07/21 10:51:32;;;;;;;5.05;3.60;;;27.60;99.90;;;;;;5110057;28;20233;-74
2022/07/21 10:54:22;;;;;;;5.82;3.53;;;28.30;99.90;;;;;;5110449;27;20293;-74
2022/07/21 10:56:50;;;;;;;4.00;3.60;;;28.40;99.90;;;;;;5109410;27;20703;-76
2022/07/21 10:59:18;;;;;;;4.68;3.78;;;28.60;94.40;;;;;;5112206;27;20270;-75
2022/07/21 11:01:45;;;;;;;3.80;3.40;;;28.30;98.30;;;;;;5109764;27;20214;-75
2022/07/21 11:04:16;;;;;;;3.60;3.28;;;30.00;83.60;;;;;;5112955;27;20379;-75
2022/07/21 11:06:46;;;;;;;4.28;3.75;;;33.10;62.90;;;;;;5112543;27;20208;-75
2022/07/21 11:09:15;;;;;;;3.70;3.33;;;33.20;37.30;;;;;;5111838;27;20614;-75
2022/07/21 11:11:59;;;;;;;3.45;3.15;;;33.20;40.40;;;;;;5120689;27;20201;-74
2022/07/21 11:14:41;;;;;;;3.67;3.20;;;33.60;28.00;;;;;;5111023;27;20194;-75
2022/07/21 11:17:10;;;;;;;5.00;3.83;;;33.90;29.60;;;;;;5107221;27;20217;-74
2022/07/21 11:19:40;;;;;;;6.43;3.50;;;33.40;23.30;;;;;;5106432;27;20210;-74
2022/07/21 11:22:12;;;;;;;4.05;3.03;;;36.00;13.30;;;;;;5111792;27;20213;-75
2022/07/21 11:24:40;;;;;;;3.63;3.05;;;34.40;1.80;;;;;;5119711;27;20221;-75
2022/07/21 11:27:09;;;;;;;4.80;3.53;;;33.40;6.70;;;;;;5116313;27;20200;-75
2022/07/21 11:29:38;;;;;;;3.55;3.25;;;33.00;8.00;;;;;;5121710;27;20289;-75
2022/07/21 11:32:07;;;;;;;3.45;2.78;;;32.60;11.70;;;;;;5113301;27;20273;-75
2022/07/21 11:34:43;;;;;;;3.70;3.38;;;33.50;8.60;;;;;;4985196;27;10000575;-74
2022/07/21 11:37:13;;;;;;;4.32;3.40;;;31.90;37.20;;;;;;5109789;27;20504;-76
2022/07/21 11:39:44;;;;;;;5.10;3.50;;;29.90;71.60;;;;;;5113508;27;20233;-74
2022/07/21 11:42:15;;;;;;;4.00;3.60;;;28.20;93.40;;;;;;5109999;27;20266;-73
2022/07/21 11:44:43;;;;;;;4.72;3.50;;;28.00;98.50;;;;;;5116319;27;21072;-74
2022/07/21 11:47:14;;;;;;;3.78;3.47;;;27.90;99.90;;;;;;5118520;27;20221;-72
2022/07/21 11:49:43;;;;;;;4.28;3.58;;;28.00;99.90;;;;;;5124240;27;20193;-76
2022/07/21 11:52:17;;;;;;;6.13;4.00;;;28.00;99.90;;;;;;5113424;27;20260;-75
2022/07/21 11:54:45;;;;;;;4.15;3.75;;;27.30;99.90;;;;;;5114817;27;20734;-75
2022/07/21 11:57:32;;;;;;;4.93;4.32;;;26.30;99.90;;;;;;5116706;27;20221;-74
2022/07/21 12:00:00;;;;;;;4.65;3.70;;;26.60;99.90;;;;;;5101749;28;20201;-73
2022/07/21 12:02:29;;;;;;;4.40;3.85;;;26.30;99.90;;;;;;5114751;28;20220;-73
2022/07/21 12:04:57;;;;;;;5.95;3.75;;;26.30;99.90;;;;;;5106597;28;20221;-74
2022/07/21 12:07:29;;;;;;;4.93;3.90;;;26.80;99.90;;;;;;5104928;28;20301;-74
2022/07/21 12:09:58;;;;;;;7.28;4.03;;;26.80;99.90;;;;;;5110563;28;20229;-73
2022/07/21 12:12:36;;;;;;;4.20;3.80;;;26.80;99.90;;;;;;5110445;28;20240;-72
2022/07/21 12:15:15;;;;;;;3.75;3.45;;;27.00;99.90;;;;;;5117124;27;20216;-72
2022/07/21 12:17:44;;;;;;;4.60;3.65;;;26.70;99.90;;;;;;5127732;27;20609;-73
2022/07/21 12:20:11;;;;;;;3.50;3.10;;;28.40;99.90;;;;;;5117448;27;20266;-73
2022/07/21 12:22:43;;;;;;;5.57;3.80;;;30.20;99.60;;;;;;5113297;27;20267;-75
2022/07/21 12:33:28;;;;;;;4.20;3.25;;;29.50;97.90;;;;;;5070053;28;20206;-75
2022/07/21 12:37:01;;;;;;;3.88;3.20;;;29.90;99.90;;;;;;5066489;28;20206;-75
2022/07/21 12:50:50;;;;;;;4.13;3.38;;;28.20;99.90;;;;;;1418700;26;20301;-74
2022/07/21 13:26:33;;;;;;;3.65;2.97;;;31.30;26.40;;;;;;4760912;30;20759;-75
2022/07/21 13:59:04;;;;;;;4.95;3.17;;;30.10;37.00;;;;;;4983702;28;20206;-75
2022/07/21 14:02:44;;;;;;;4.82;2.85;;;30.10;41.00;;;;;;4991337;28;20236;-75
2022/07/21 14:12:18;;;;;;;3.83;3.25;;;30.60;14.50;;;;;;4931195;29;20215;-75
2022/07/21 14:34:23;;;;;;;4.30;2.90;;;33.00;9.90;;;;;;5018490;28;20294;-75
2022/07/21 14:37:38;;;;;;;3.50;3.15;;;33.50;8.30;;;;;;4934879;29;20557;-75
2022/07/21 14:44:25;;;;;;;3.97;2.85;;;32.70;3.00;;;;;;4866860;29;20266;-74
2022/07/21 15:04:07;;;;;;;3.47;2.70;;;31.00;16.90;;;;;;5016116;28;20263;-74
2022/07/21 15:07:30;;;;;;;3.38;2.85;;;31.50;25.80;;;;;;5017275;28;20266;-75
2022/07/21 15:10:38;;;;;;;5.32;2.75;;;31.80;6.30;;;;;;4893345;29;20217;-74